sensor_id;sensor_type;location;lat;lon;timestamp;P1;durP1;ratioP1;P2;durP2;ratioP2
67051;SDS011;53957;47.222;18.670;2022-07-04T06:10:46;10.98;;;10.00;;
67051;SDS011;53957;47.222;18.670;2022-07-04T06:13:49;14.40;;;10.45;;
67051;SDS011;53957;47.222;18.670;2022-07-04T06:16:52;10.82;;;9.73;;
67051;SDS011;53957;47.222;18.670;2022-07-04T06:19:55;11.25;;;9.77;;
67051;SDS011;53957;47.222;18.670;2022-07-04T06:22:58;14.05;;;12.43;;
67051;SDS011;53957;47.222;18.670;2022-07-04T06:26:01;15.10;;;13.70;;
67051;SDS011;53957;47.222;18.670;2022-07-04T06:29:04;15.52;;;14.05;;
67051;SDS011;53957;47.222;18.670;2022-07-04T06:32:07;14.80;;;13.40;;
67051;SDS011;53957;47.222;18.670;2022-07-04T06:35:10;12.37;;;11.32;;
67051;SDS011;53957;47.222;18.670;2022-07-04T06:38:32;11.70;;;10.50;;
67051;SDS011;53957;47.222;18.670;2022-07-04T06:41:35;11.23;;;10.07;;
67051;SDS011;53957;47.222;18.670;2022-07-04T06:44:38;16.60;;;15.02;;
67051;SDS011;53957;47.222;18.670;2022-07-04T06:47:41;12.07;;;9.43;;
67051;SDS011;53957;47.222;18.670;2022-07-04T06:50:44;16.02;;;14.55;;
67051;SDS011;53957;47.222;18.670;2022-07-04T06:53:47;19.50;;;17.95;;
67051;SDS011;53957;47.222;18.670;2022-07-04T06:56:50;9.05;;;8.35;;
67051;SDS011;53957;47.222;18.670;2022-07-04T07:00:13;16.08;;;14.30;;
67051;SDS011;53957;47.222;18.670;2022-07-04T07:03:17;17.35;;;16.15;;
67051;SDS011;53957;47.222;18.670;2022-07-04T07:06:20;6.70;;;6.28;;
67051;SDS011;53957;47.222;18.670;2022-07-04T07:09:23;7.85;;;7.32;;
67051;SDS011;53957;47.222;18.670;2022-07-04T07:12:26;10.95;;;10.10;;
67051;SDS011;53957;47.222;18.670;2022-07-04T07:15:29;29.00;;;26.58;;
67051;SDS011;53957;47.222;18.670;2022-07-04T07:18:33;38.72;;;35.42;;
67051;SDS011;53957;47.222;18.670;2022-07-04T07:21:36;58.17;;;54.13;;
67051;SDS011;53957;47.222;18.670;2022-07-04T07:24:39;45.88;;;42.88;;
67051;SDS011;53957;47.222;18.670;2022-07-04T07:27:42;103.40;;;96.47;;
67051;SDS011;53957;47.222;18.670;2022-07-04T07:30:45;100.38;;;93.37;;
67051;SDS011;53957;47.222;18.670;2022-07-04T07:33:48;117.85;;;109.75;;
67051;SDS011;53957;47.222;18.670;2022-07-04T07:36:51;169.30;;;157.00;;
67051;SDS011;53957;47.222;18.670;2022-07-04T07:39:55;186.15;;;173.65;;
67051;SDS011;53957;47.222;18.670;2022-07-04T07:42:58;218.50;;;203.35;;
67051;SDS011;53957;47.222;18.670;2022-07-04T07:46:02;222.18;;;206.65;;
67051;SDS011;53957;47.222;18.670;2022-07-04T07:49:08;163.85;;;152.80;;
67051;SDS011;53957;47.222;18.670;2022-07-04T07:52:11;98.35;;;91.53;;
67051;SDS011;53957;47.222;18.670;2022-07-04T07:55:14;56.55;;;52.38;;
67051;SDS011;53957;47.222;18.670;2022-07-04T07:58:17;18.37;;;17.23;;
67051;SDS011;53957;47.222;18.670;2022-07-04T08:01:22;56.50;;;52.28;;
67051;SDS011;53957;47.222;18.670;2022-07-04T08:04:25;13.88;;;12.73;;
67051;SDS011;53957;47.222;18.670;2022-07-04T08:07:37;23.98;;;22.37;;
67051;SDS011;53957;47.222;18.670;2022-07-04T08:10:40;24.10;;;21.92;;
67051;SDS011;53957;47.222;18.670;2022-07-04T08:13:43;37.58;;;35.28;;
67051;SDS011;53957;47.222;18.670;2022-07-04T08:16:46;40.08;;;37.38;;
67051;SDS011;53957;47.222;18.670;2022-07-04T08:19:57;29.08;;;27.20;;
67051;SDS011;53957;47.222;18.670;2022-07-04T08:31:48;183.80;;;171.20;;
67051;SDS011;53957;47.222;18.670;2022-07-04T08:34:54;196.90;;;183.65;;
67051;SDS011;53957;47.222;18.670;2022-07-04T08:38:00;193.87;;;180.68;;
67051;SDS011;53957;47.222;18.670;2022-07-04T08:41:23;152.60;;;142.37;;
67051;SDS011;53957;47.222;18.670;2022-07-04T08:44:42;179.05;;;166.90;;
67051;SDS011;53957;47.222;18.670;2022-07-04T08:48:32;154.82;;;142.87;;
67051;SDS011;53957;47.222;18.670;2022-07-04T08:55:28;148.00;;;138.18;;
67051;SDS011;53957;47.222;18.670;2022-07-04T14:24:15;333.20;;;309.42;;
67051;SDS011;53957;47.222;18.670;2022-07-04T14:27:52;326.67;;;304.08;;
67051;SDS011;53957;47.222;18.670;2022-07-04T14:31:16;343.23;;;316.40;;
67051;SDS011;53957;47.222;18.670;2022-07-04T14:49:46;335.90;;;311.58;;
67051;SDS011;53957;47.222;18.670;2022-07-04T15:35:01;332.02;;;308.48;;
67051;SDS011;53957;47.222;18.670;2022-07-04T15:38:16;328.58;;;304.67;;
67051;SDS011;53957;47.222;18.670;2022-07-04T15:41:39;343.23;;;318.02;;
67051;SDS011;53957;47.222;18.670;2022-07-04T15:44:43;348.90;;;322.88;;
67051;SDS011;53957;47.222;18.670;2022-07-04T15:47:46;347.92;;;322.70;;
67051;SDS011;53957;47.222;18.670;2022-07-04T15:50:50;342.20;;;317.33;;
67051;SDS011;53957;47.222;18.670;2022-07-04T15:54:16;334.17;;;310.70;;
67051;SDS011;53957;47.222;18.670;2022-07-04T15:57:20;340.83;;;315.85;;
67051;SDS011;53957;47.222;18.670;2022-07-04T16:00:23;311.12;;;287.92;;
67051;SDS011;53957;47.222;18.670;2022-07-04T16:03:35;339.92;;;315.48;;
67051;SDS011;53957;47.222;18.670;2022-07-04T16:06:38;321.83;;;298.98;;
67051;SDS011;53957;47.222;18.670;2022-07-04T16:09:44;352.02;;;326.85;;
67051;SDS011;53957;47.222;18.670;2022-07-04T16:12:47;324.92;;;302.58;;
67051;SDS011;53957;47.222;18.670;2022-07-04T16:15:57;317.15;;;295.23;;
67051;SDS011;53957;47.222;18.670;2022-07-04T16:19:09;325.98;;;303.52;;
67051;SDS011;53957;47.222;18.670;2022-07-04T16:22:15;322.80;;;300.35;;
67051;SDS011;53957;47.222;18.670;2022-07-04T16:25:19;329.92;;;307.02;;
67051;SDS011;53957;47.222;18.670;2022-07-04T16:28:22;315.25;;;293.30;;
67051;SDS011;53957;47.222;18.670;2022-07-04T16:31:24;288.48;;;268.17;;
67051;SDS011;53957;47.222;18.670;2022-07-04T16:34:28;309.05;;;286.92;;
67051;SDS011;53957;47.222;18.670;2022-07-04T16:37:31;297.33;;;276.62;;
67051;SDS011;53957;47.222;18.670;2022-07-04T16:40:34;301.30;;;280.25;;
67051;SDS011;53957;47.222;18.670;2022-07-04T16:43:37;277.60;;;258.42;;
67051;SDS011;53957;47.222;18.670;2022-07-04T16:46:40;229.77;;;213.73;;
67051;SDS011;53957;47.222;18.670;2022-07-04T16:49:45;228.68;;;212.55;;
67051;SDS011;53957;47.222;18.670;2022-07-04T16:52:48;253.70;;;236.10;;
67051;SDS011;53957;47.222;18.670;2022-07-04T16:55:51;280.35;;;260.20;;
67051;SDS011;53957;47.222;18.670;2022-07-04T16:58:54;262.60;;;244.77;;
67051;SDS011;53957;47.222;18.670;2022-07-04T17:01:57;254.40;;;236.65;;
67051;SDS011;53957;47.222;18.670;2022-07-04T17:05:11;296.52;;;276.12;;
67051;SDS011;53957;47.222;18.670;2022-07-04T17:08:34;304.70;;;283.27;;
67051;SDS011;53957;47.222;18.670;2022-07-04T17:11:51;307.85;;;286.80;;
67051;SDS011;53957;47.222;18.670;2022-07-04T17:14:54;313.17;;;290.80;;
67051;SDS011;53957;47.222;18.670;2022-07-04T17:18:02;292.15;;;271.23;;
67051;SDS011;53957;47.222;18.670;2022-07-04T17:21:10;289.40;;;268.20;;
67051;SDS011;53957;47.222;18.670;2022-07-04T17:25:00;257.58;;;238.80;;
67051;SDS011;53957;47.222;18.670;2022-07-04T17:28:37;286.37;;;265.67;;
67051;SDS011;53957;47.222;18.670;2022-07-04T17:32:13;261.90;;;243.27;;
67051;SDS011;53957;47.222;18.670;2022-07-04T18:33:10;238.57;;;221.27;;
67051;SDS011;53957;47.222;18.670;2022-07-04T18:36:14;264.00;;;244.70;;
67051;SDS011;53957;47.222;18.670;2022-07-04T19:04:57;217.95;;;201.85;;
67051;SDS011;53957;47.222;18.670;2022-07-04T19:08:03;224.07;;;207.77;;
67051;SDS011;53957;47.222;18.670;2022-07-04T19:11:06;201.15;;;185.93;;
67051;SDS011;53957;47.222;18.670;2022-07-04T19:14:24;212.93;;;197.37;;
67051;SDS011;53957;47.222;18.670;2022-07-04T19:17:29;197.73;;;182.37;;
67051;SDS011;53957;47.222;18.670;2022-07-04T19:20:58;181.12;;;166.98;;
67051;SDS011;53957;47.222;18.670;2022-07-04T19:24:22;168.15;;;155.57;;
67051;SDS011;53957;47.222;18.670;2022-07-04T19:27:25;165.77;;;152.85;;
67051;SDS011;53957;47.222;18.670;2022-07-04T19:30:28;177.02;;;163.98;;
67051;SDS011;53957;47.222;18.670;2022-07-04T19:33:31;203.57;;;188.35;;
67051;SDS011;53957;47.222;18.670;2022-07-04T19:36:33;183.25;;;170.10;;
67051;SDS011;53957;47.222;18.670;2022-07-04T19:39:41;169.95;;;156.82;;
67051;SDS011;53957;47.222;18.670;2022-07-04T19:43:04;197.15;;;182.30;;
67051;SDS011;53957;47.222;18.670;2022-07-04T19:46:14;180.07;;;166.52;;
67051;SDS011;53957;47.222;18.670;2022-07-04T19:49:17;212.73;;;195.48;;
67051;SDS011;53957;47.222;18.670;2022-07-04T19:52:22;192.35;;;178.10;;
67051;SDS011;53957;47.222;18.670;2022-07-04T19:55:32;204.77;;;189.68;;
67051;SDS011;53957;47.222;18.670;2022-07-04T19:58:35;227.52;;;210.43;;
67051;SDS011;53957;47.222;18.670;2022-07-04T20:01:38;222.95;;;206.10;;
67051;SDS011;53957;47.222;18.670;2022-07-04T20:04:41;189.70;;;174.80;;
67051;SDS011;53957;47.222;18.670;2022-07-04T20:07:45;219.57;;;202.07;;
67051;SDS011;53957;47.222;18.670;2022-07-04T20:10:49;202.70;;;188.32;;
67051;SDS011;53957;47.222;18.670;2022-07-04T20:13:51;209.18;;;194.30;;
67051;SDS011;53957;47.222;18.670;2022-07-04T20:16:54;216.10;;;199.40;;
67051;SDS011;53957;47.222;18.670;2022-07-04T20:19:58;212.88;;;197.48;;
67051;SDS011;53957;47.222;18.670;2022-07-04T20:23:01;216.48;;;200.80;;
67051;SDS011;53957;47.222;18.670;2022-07-04T20:26:05;235.07;;;217.18;;
67051;SDS011;53957;47.222;18.670;2022-07-04T20:29:08;215.52;;;198.80;;
67051;SDS011;53957;47.222;18.670;2022-07-04T20:32:11;217.98;;;201.93;;
67051;SDS011;53957;47.222;18.670;2022-07-04T20:35:15;234.77;;;216.85;;
67051;SDS011;53957;47.222;18.670;2022-07-04T20:38:19;205.15;;;190.55;;
67051;SDS011;53957;47.222;18.670;2022-07-04T20:41:22;239.10;;;222.20;;
67051;SDS011;53957;47.222;18.670;2022-07-04T20:44:25;243.40;;;224.98;;
67051;SDS011;53957;47.222;18.670;2022-07-04T20:47:28;243.30;;;225.60;;
67051;SDS011;53957;47.222;18.670;2022-07-04T20:50:32;242.32;;;223.05;;
67051;SDS011;53957;47.222;18.670;2022-07-04T20:53:35;248.05;;;228.40;;
67051;SDS011;53957;47.222;18.670;2022-07-04T20:56:38;238.23;;;220.85;;
67051;SDS011;53957;47.222;18.670;2022-07-04T20:59:44;238.57;;;221.20;;
67051;SDS011;53957;47.222;18.670;2022-07-04T21:02:47;249.30;;;230.93;;
67051;SDS011;53957;47.222;18.670;2022-07-04T21:05:50;248.20;;;229.70;;
67051;SDS011;53957;47.222;18.670;2022-07-04T21:08:54;249.30;;;231.25;;
67051;SDS011;53957;47.222;18.670;2022-07-04T21:11:57;261.45;;;241.50;;
67051;SDS011;53957;47.222;18.670;2022-07-04T21:15:00;252.52;;;233.20;;
67051;SDS011;53957;47.222;18.670;2022-07-04T21:18:03;255.55;;;235.77;;
